sensor_id;sensor_type;location;lat;lon;timestamp;temperature;humidity
58153;DHT22;43967;51.634;5.566;2023-03-01T00:04:33;16.20;46.10
58153;DHT22;43967;51.634;5.566;2023-03-01T00:09:54;16.20;46.10
58153;DHT22;43967;51.634;5.566;2023-03-01T00:15:16;16.20;46.10
58153;DHT22;43967;51.634;5.566;2023-03-01T00:20:37;16.10;46.00
58153;DHT22;43967;51.634;5.566;2023-03-01T00:25:58;16.10;46.00
58153;DHT22;43967;51.634;5.566;2023-03-01T00:31:26;16.10;46.00
58153;DHT22;43967;51.634;5.566;2023-03-01T00:36:47;16.10;46.00
58153;DHT22;43967;51.634;5.566;2023-03-01T00:42:08;16.10;46.00
58153;DHT22;43967;51.634;5.566;2023-03-01T00:47:30;16.10;45.90
58153;DHT22;43967;51.634;5.566;2023-03-01T00:52:55;16.10;46.00
58153;DHT22;43967;51.634;5.566;2023-03-01T00:58:16;16.10;46.00
58153;DHT22;43967;51.634;5.566;2023-03-01T01:03:37;16.00;45.90
58153;DHT22;43967;51.634;5.566;2023-03-01T01:08:59;16.00;45.90
58153;DHT22;43967;51.634;5.566;2023-03-01T01:14:20;16.00;46.00
58153;DHT22;43967;51.634;5.566;2023-03-01T01:19:42;16.00;45.90
58153;DHT22;43967;51.634;5.566;2023-03-01T01:25:03;16.00;46.00
58153;DHT22;43967;51.634;5.566;2023-03-01T01:30:25;16.00;46.10
58153;DHT22;43967;51.634;5.566;2023-03-01T01:35:46;16.00;46.10
58153;DHT22;43967;51.634;5.566;2023-03-01T01:41:08;15.90;46.00
58153;DHT22;43967;51.634;5.566;2023-03-01T01:46:34;15.90;46.10
58153;DHT22;43967;51.634;5.566;2023-03-01T01:52:22;15.90;46.10
58153;DHT22;43967;51.634;5.566;2023-03-01T01:57:51;15.90;46.20
58153;DHT22;43967;51.634;5.566;2023-03-01T02:03:18;15.90;46.20
58153;DHT22;43967;51.634;5.566;2023-03-01T02:08:42;15.90;46.20
58153;DHT22;43967;51.634;5.566;2023-03-01T02:14:04;15.90;46.20
58153;DHT22;43967;51.634;5.566;2023-03-01T02:30:37;15.90;46.30
58153;DHT22;43967;51.634;5.566;2023-03-01T02:36:00;15.80;46.30
58153;DHT22;43967;51.634;5.566;2023-03-01T02:41:23;15.90;46.30
58153;DHT22;43967;51.634;5.566;2023-03-01T02:46:49;15.80;46.20
58153;DHT22;43967;51.634;5.566;2023-03-01T02:58:02;15.80;46.20
58153;DHT22;43967;51.634;5.566;2023-03-01T03:03:23;15.80;46.20
58153;DHT22;43967;51.634;5.566;2023-03-01T03:08:45;15.80;46.30
58153;DHT22;43967;51.634;5.566;2023-03-01T03:14:07;15.80;46.20
58153;DHT22;43967;51.634;5.566;2023-03-01T03:19:28;15.80;46.20
58153;DHT22;43967;51.634;5.566;2023-03-01T03:24:49;15.80;46.30
58153;DHT22;43967;51.634;5.566;2023-03-01T03:30:16;15.90;46.30
58153;DHT22;43967;51.634;5.566;2023-03-01T03:35:42;15.80;46.20
58153;DHT22;43967;51.634;5.566;2023-03-01T03:41:05;15.90;46.30
58153;DHT22;43967;51.634;5.566;2023-03-01T03:46:27;15.90;46.30
58153;DHT22;43967;51.634;5.566;2023-03-01T03:51:48;15.90;46.40
58153;DHT22;43967;51.634;5.566;2023-03-01T03:57:09;15.90;46.30
58153;DHT22;43967;51.634;5.566;2023-03-01T04:02:31;15.90;46.30
58153;DHT22;43967;51.634;5.566;2023-03-01T04:07:52;15.90;46.30
58153;DHT22;43967;51.634;5.566;2023-03-01T04:13:16;15.90;46.30
58153;DHT22;43967;51.634;5.566;2023-03-01T04:18:38;15.90;46.30
58153;DHT22;43967;51.634;5.566;2023-03-01T04:23:59;15.90;46.30
58153;DHT22;43967;51.634;5.566;2023-03-01T04:29:20;15.90;46.30
58153;DHT22;43967;51.634;5.566;2023-03-01T04:34:41;15.90;46.30
58153;DHT22;43967;51.634;5.566;2023-03-01T04:40:03;15.90;46.30
58153;DHT22;43967;51.634;5.566;2023-03-01T04:45:25;15.90;46.30
58153;DHT22;43967;51.634;5.566;2023-03-01T04:50:46;15.90;46.30
58153;DHT22;43967;51.634;5.566;2023-03-01T04:56:07;15.90;46.30
58153;DHT22;43967;51.634;5.566;2023-03-01T05:01:29;16.00;47.00
58153;DHT22;43967;51.634;5.566;2023-03-01T05:06:50;16.00;46.40
58153;DHT22;43967;51.634;5.566;2023-03-01T05:12:12;16.00;47.10
58153;DHT22;43967;51.634;5.566;2023-03-01T05:17:34;16.00;46.30
58153;DHT22;43967;51.634;5.566;2023-03-01T05:22:58;16.00;46.40
58153;DHT22;43967;51.634;5.566;2023-03-01T05:28:20;16.00;46.30
58153;DHT22;43967;51.634;5.566;2023-03-01T05:33:41;16.00;46.30
58153;DHT22;43967;51.634;5.566;2023-03-01T05:39:02;16.00;46.30
58153;DHT22;43967;51.634;5.566;2023-03-01T05:44:24;16.00;46.30
58153;DHT22;43967;51.634;5.566;2023-03-01T05:49:45;16.00;46.30
58153;DHT22;43967;51.634;5.566;2023-03-01T05:55:07;16.10;46.40
58153;DHT22;43967;51.634;5.566;2023-03-01T06:00:30;16.10;46.50
58153;DHT22;43967;51.634;5.566;2023-03-01T06:05:56;16.10;46.50
58153;DHT22;43967;51.634;5.566;2023-03-01T06:11:17;16.20;46.60
58153;DHT22;43967;51.634;5.566;2023-03-01T06:16:39;16.30;46.50
58153;DHT22;43967;51.634;5.566;2023-03-01T06:22:00;16.40;46.50
58153;DHT22;43967;51.634;5.566;2023-03-01T06:27:21;16.50;46.60
58153;DHT22;43967;51.634;5.566;2023-03-01T06:32:43;16.60;46.60
58153;DHT22;43967;51.634;5.566;2023-03-01T06:38:05;16.60;46.50
58153;DHT22;43967;51.634;5.566;2023-03-01T06:43:26;16.70;46.40
58153;DHT22;43967;51.634;5.566;2023-03-01T06:48:47;16.60;46.40
58153;DHT22;43967;51.634;5.566;2023-03-01T06:54:08;16.60;46.40
58153;DHT22;43967;51.634;5.566;2023-03-01T06:59:30;16.60;46.40
58153;DHT22;43967;51.634;5.566;2023-03-01T07:04:51;16.60;46.50
58153;DHT22;43967;51.634;5.566;2023-03-01T07:10:12;16.60;46.60
58153;DHT22;43967;51.634;5.566;2023-03-01T07:15:34;16.60;46.50
58153;DHT22;43967;51.634;5.566;2023-03-01T07:20:55;16.60;46.20
58153;DHT22;43967;51.634;5.566;2023-03-01T07:26:16;16.60;46.10
58153;DHT22;43967;51.634;5.566;2023-03-01T07:31:37;16.80;46.00
58153;DHT22;43967;51.634;5.566;2023-03-01T07:36:59;16.90;46.00
58153;DHT22;43967;51.634;5.566;2023-03-01T07:42:20;17.20;45.70
58153;DHT22;43967;51.634;5.566;2023-03-01T07:47:41;17.50;45.30
58153;DHT22;43967;51.634;5.566;2023-03-01T07:53:02;17.90;45.00
58153;DHT22;43967;51.634;5.566;2023-03-01T07:58:24;18.10;44.80
58153;DHT22;43967;51.634;5.566;2023-03-01T08:03:45;18.30;44.90
58153;DHT22;43967;51.634;5.566;2023-03-01T08:09:07;18.40;44.90
58153;DHT22;43967;51.634;5.566;2023-03-01T08:14:28;18.30;45.00
58153;DHT22;43967;51.634;5.566;2023-03-01T08:19:49;18.20;45.20
58153;DHT22;43967;51.634;5.566;2023-03-01T08:25:11;18.10;45.30
58153;DHT22;43967;51.634;5.566;2023-03-01T08:30:32;18.00;45.50
58153;DHT22;43967;51.634;5.566;2023-03-01T08:36:11;18.10;45.70
58153;DHT22;43967;51.634;5.566;2023-03-01T08:41:33;18.00;45.80
58153;DHT22;43967;51.634;5.566;2023-03-01T08:46:54;17.90;45.90
58153;DHT22;43967;51.634;5.566;2023-03-01T08:52:16;17.80;46.00
58153;DHT22;43967;51.634;5.566;2023-03-01T08:57:37;17.80;46.10
58153;DHT22;43967;51.634;5.566;2023-03-01T09:02:58;17.70;46.10
58153;DHT22;43967;51.634;5.566;2023-03-01T09:08:20;17.70;46.30
58153;DHT22;43967;51.634;5.566;2023-03-01T09:13:41;17.90;46.30
58153;DHT22;43967;51.634;5.566;2023-03-01T09:19:04;17.90;46.20
58153;DHT22;43967;51.634;5.566;2023-03-01T09:24:25;18.00;46.10
58153;DHT22;43967;51.634;5.566;2023-03-01T09:29:46;18.00;46.10
58153;DHT22;43967;51.634;5.566;2023-03-01T09:35:08;18.00;46.30
58153;DHT22;43967;51.634;5.566;2023-03-01T09:40:29;18.00;46.50
58153;DHT22;43967;51.634;5.566;2023-03-01T09:45:53;18.20;46.70
58153;DHT22;43967;51.634;5.566;2023-03-01T09:51:31;18.60;46.50
58153;DHT22;43967;51.634;5.566;2023-03-01T09:57:11;18.90;46.20
58153;DHT22;43967;51.634;5.566;2023-03-01T10:02:39;19.30;45.70
58153;DHT22;43967;51.634;5.566;2023-03-01T10:08:29;19.50;45.30
58153;DHT22;43967;51.634;5.566;2023-03-01T10:19:38;20.00;44.60
58153;DHT22;43967;51.634;5.566;2023-03-01T10:25:02;20.10;44.20
58153;DHT22;43967;51.634;5.566;2023-03-01T10:30:44;20.30;44.10
58153;DHT22;43967;51.634;5.566;2023-03-01T10:36:06;20.50;43.80
58153;DHT22;43967;51.634;5.566;2023-03-01T10:41:27;20.60;43.80
58153;DHT22;43967;51.634;5.566;2023-03-01T10:46:59;20.80;43.70
58153;DHT22;43967;51.634;5.566;2023-03-01T10:52:26;20.90;43.60
58153;DHT22;43967;51.634;5.566;2023-03-01T10:57:47;21.00;43.50
58153;DHT22;43967;51.634;5.566;2023-03-01T11:03:23;21.10;44.10
58153;DHT22;43967;51.634;5.566;2023-03-01T11:08:46;21.20;43.30
58153;DHT22;43967;51.634;5.566;2023-03-01T11:14:16;21.30;43.20
58153;DHT22;43967;51.634;5.566;2023-03-01T11:19:38;21.40;43.20
58153;DHT22;43967;51.634;5.566;2023-03-01T11:24:59;21.40;42.80
58153;DHT22;43967;51.634;5.566;2023-03-01T11:30:39;21.00;43.70
58153;DHT22;43967;51.634;5.566;2023-03-01T11:36:15;20.70;46.30
58153;DHT22;43967;51.634;5.566;2023-03-01T11:41:40;20.40;47.50
58153;DHT22;43967;51.634;5.566;2023-03-01T11:47:16;20.20;47.40
58153;DHT22;43967;51.634;5.566;2023-03-01T11:58:17;19.80;46.60
58153;DHT22;43967;51.634;5.566;2023-03-01T12:38:45;21.10;44.80
58153;DHT22;43967;51.634;5.566;2023-03-01T12:44:29;21.30;44.60
58153;DHT22;43967;51.634;5.566;2023-03-01T12:50:00;21.50;44.40
58153;DHT22;43967;51.634;5.566;2023-03-01T12:55:39;21.50;44.30
58153;DHT22;43967;51.634;5.566;2023-03-01T13:06:44;21.80;44.00
58153;DHT22;43967;51.634;5.566;2023-03-01T13:12:42;21.90;43.90
58153;DHT22;43967;51.634;5.566;2023-03-01T13:23:38;22.00;43.70
58153;DHT22;43967;51.634;5.566;2023-03-01T13:29:00;22.10;43.50
58153;DHT22;43967;51.634;5.566;2023-03-01T13:34:55;22.10;43.60
58153;DHT22;43967;51.634;5.566;2023-03-01T13:45:42;22.20;43.60
58153;DHT22;43967;51.634;5.566;2023-03-01T13:51:08;22.20;43.40
58153;DHT22;43967;51.634;5.566;2023-03-01T13:56:37;22.30;43.60
58153;DHT22;43967;51.634;5.566;2023-03-01T14:02:00;22.30;43.50
58153;DHT22;43967;51.634;5.566;2023-03-01T14:07:23;22.40;43.50
58153;DHT22;43967;51.634;5.566;2023-03-01T14:12:52;22.40;43.40
58153;DHT22;43967;51.634;5.566;2023-03-01T14:24:03;22.50;43.40
58153;DHT22;43967;51.634;5.566;2023-03-01T14:29:34;22.50;41.00
58153;DHT22;43967;51.634;5.566;2023-03-01T14:34:57;22.20;40.70
58153;DHT22;43967;51.634;5.566;2023-03-01T14:40:26;21.70;40.60
58153;DHT22;43967;51.634;5.566;2023-03-01T14:45:49;21.30;41.40
58153;DHT22;43967;51.634;5.566;2023-03-01T14:51:12;21.00;41.30
58153;DHT22;43967;51.634;5.566;2023-03-01T14:56:44;20.80;41.90
58153;DHT22;43967;51.634;5.566;2023-03-01T15:02:17;20.80;43.50
58153;DHT22;43967;51.634;5.566;2023-03-01T15:07:40;20.60;43.40
58153;DHT22;43967;51.634;5.566;2023-03-01T15:13:23;20.40;43.70
58153;DHT22;43967;51.634;5.566;2023-03-01T15:19:00;20.20;44.10
58153;DHT22;43967;51.634;5.566;2023-03-01T15:24:25;20.10;44.40
58153;DHT22;43967;51.634;5.566;2023-03-01T15:35:34;19.90;44.70
58153;DHT22;43967;51.634;5.566;2023-03-01T15:41:05;19.80;44.70
58153;DHT22;43967;51.634;5.566;2023-03-01T15:46:30;19.70;45.00
58153;DHT22;43967;51.634;5.566;2023-03-01T15:51:54;19.60;45.10
58153;DHT22;43967;51.634;5.566;2023-03-01T15:57:15;19.50;45.40
58153;DHT22;43967;51.634;5.566;2023-03-01T16:02:37;19.40;45.40
58153;DHT22;43967;51.634;5.566;2023-03-01T16:07:59;19.30;45.50
58153;DHT22;43967;51.634;5.566;2023-03-01T16:13:20;19.20;45.60
58153;DHT22;43967;51.634;5.566;2023-03-01T16:18:46;19.20;45.70
58153;DHT22;43967;51.634;5.566;2023-03-01T16:24:08;19.10;45.70
58153;DHT22;43967;51.634;5.566;2023-03-01T16:29:29;19.10;45.70
58153;DHT22;43967;51.634;5.566;2023-03-01T16:34:50;19.10;45.80
58153;DHT22;43967;51.634;5.566;2023-03-01T16:40:20;19.00;45.70
58153;DHT22;43967;51.634;5.566;2023-03-01T16:45:42;19.00;45.80
58153;DHT22;43967;51.634;5.566;2023-03-01T16:51:03;18.90;45.70
58153;DHT22;43967;51.634;5.566;2023-03-01T16:56:25;18.90;45.70
58153;DHT22;43967;51.634;5.566;2023-03-01T17:01:46;18.90;45.70
58153;DHT22;43967;51.634;5.566;2023-03-01T17:07:07;18.90;45.70
58153;DHT22;43967;51.634;5.566;2023-03-01T17:12:29;18.80;45.60
58153;DHT22;43967;51.634;5.566;2023-03-01T17:17:50;18.80;45.60
58153;DHT22;43967;51.634;5.566;2023-03-01T17:23:11;18.90;45.60
58153;DHT22;43967;51.634;5.566;2023-03-01T17:28:33;18.80;45.60
58153;DHT22;43967;51.634;5.566;2023-03-01T17:33:55;18.80;45.70
58153;DHT22;43967;51.634;5.566;2023-03-01T17:39:16;18.80;45.70
58153;DHT22;43967;51.634;5.566;2023-03-01T17:44:38;18.80;45.70
58153;DHT22;43967;51.634;5.566;2023-03-01T17:49:59;18.70;45.70
58153;DHT22;43967;51.634;5.566;2023-03-01T17:55:21;18.70;45.70
58153;DHT22;43967;51.634;5.566;2023-03-01T18:00:42;18.70;45.60
58153;DHT22;43967;51.634;5.566;2023-03-01T18:06:10;18.70;45.60
58153;DHT22;43967;51.634;5.566;2023-03-01T18:11:33;18.70;45.70
58153;DHT22;43967;51.634;5.566;2023-03-01T18:16:54;18.60;45.60
58153;DHT22;43967;51.634;5.566;2023-03-01T18:22:16;18.60;45.70
58153;DHT22;43967;51.634;5.566;2023-03-01T18:27:37;18.60;45.60
58153;DHT22;43967;51.634;5.566;2023-03-01T18:32:59;18.60;45.70
58153;DHT22;43967;51.634;5.566;2023-03-01T18:38:20;18.50;45.80
58153;DHT22;43967;51.634;5.566;2023-03-01T18:43:41;18.50;46.10
58153;DHT22;43967;51.634;5.566;2023-03-01T18:49:03;18.40;46.10
58153;DHT22;43967;51.634;5.566;2023-03-01T18:54:25;18.50;46.30
58153;DHT22;43967;51.634;5.566;2023-03-01T18:59:46;18.50;46.30
58153;DHT22;43967;51.634;5.566;2023-03-01T19:05:07;18.50;46.30
58153;DHT22;43967;51.634;5.566;2023-03-01T19:10:29;18.60;46.30
58153;DHT22;43967;51.634;5.566;2023-03-01T19:15:50;18.60;46.30
58153;DHT22;43967;51.634;5.566;2023-03-01T19:21:11;18.60;46.30
58153;DHT22;43967;51.634;5.566;2023-03-01T19:26:33;18.70;46.30
58153;DHT22;43967;51.634;5.566;2023-03-01T19:31:54;18.70;46.30
58153;DHT22;43967;51.634;5.566;2023-03-01T19:37:16;18.70;46.30
58153;DHT22;43967;51.634;5.566;2023-03-01T19:42:37;18.70;46.20
58153;DHT22;43967;51.634;5.566;2023-03-01T19:47:58;18.80;46.30
58153;DHT22;43967;51.634;5.566;2023-03-01T19:53:20;18.80;46.20
58153;DHT22;43967;51.634;5.566;2023-03-01T19:58:41;18.80;46.10
58153;DHT22;43967;51.634;5.566;2023-03-01T20:04:03;18.70;46.10
58153;DHT22;43967;51.634;5.566;2023-03-01T20:09:24;18.70;46.00
58153;DHT22;43967;51.634;5.566;2023-03-01T20:14:45;18.60;45.90
58153;DHT22;43967;51.634;5.566;2023-03-01T20:20:07;18.60;45.90
58153;DHT22;43967;51.634;5.566;2023-03-01T20:25:29;18.60;45.80
58153;DHT22;43967;51.634;5.566;2023-03-01T20:30:50;18.60;45.70
58153;DHT22;43967;51.634;5.566;2023-03-01T20:36:11;18.50;45.60
58153;DHT22;43967;51.634;5.566;2023-03-01T20:41:32;18.60;45.60
58153;DHT22;43967;51.634;5.566;2023-03-01T20:46:54;18.50;45.40
58153;DHT22;43967;51.634;5.566;2023-03-01T20:52:15;18.50;45.30
58153;DHT22;43967;51.634;5.566;2023-03-01T20:57:36;18.50;45.10
58153;DHT22;43967;51.634;5.566;2023-03-01T21:02:57;18.40;45.10
58153;DHT22;43967;51.634;5.566;2023-03-01T21:08:19;18.40;45.10
58153;DHT22;43967;51.634;5.566;2023-03-01T21:13:40;18.40;45.10
58153;DHT22;43967;51.634;5.566;2023-03-01T21:19:01;18.30;45.10
58153;DHT22;43967;51.634;5.566;2023-03-01T21:24:22;18.30;45.10
58153;DHT22;43967;51.634;5.566;2023-03-01T21:29:45;18.30;45.10
58153;DHT22;43967;51.634;5.566;2023-03-01T21:35:07;18.30;45.00
58153;DHT22;43967;51.634;5.566;2023-03-01T21:40:28;18.20;44.90
58153;DHT22;43967;51.634;5.566;2023-03-01T21:45:49;18.20;44.90
58153;DHT22;43967;51.634;5.566;2023-03-01T21:51:12;18.20;44.80
58153;DHT22;43967;51.634;5.566;2023-03-01T21:56:34;18.20;44.90
58153;DHT22;43967;51.634;5.566;2023-03-01T22:01:55;18.10;44.80
58153;DHT22;43967;51.634;5.566;2023-03-01T22:07:17;18.10;44.80
58153;DHT22;43967;51.634;5.566;2023-03-01T22:12:38;18.10;44.80
58153;DHT22;43967;51.634;5.566;2023-03-01T22:17:59;18.10;44.80
58153;DHT22;43967;51.634;5.566;2023-03-01T22:23:20;18.10;44.80
58153;DHT22;43967;51.634;5.566;2023-03-01T22:28:42;18.00;44.80
58153;DHT22;43967;51.634;5.566;2023-03-01T22:34:03;18.00;44.80
58153;DHT22;43967;51.634;5.566;2023-03-01T22:39:25;18.00;44.80
58153;DHT22;43967;51.634;5.566;2023-03-01T22:44:46;18.00;44.90
58153;DHT22;43967;51.634;5.566;2023-03-01T22:50:11;17.90;44.90
58153;DHT22;43967;51.634;5.566;2023-03-01T22:55:33;17.90;44.90
58153;DHT22;43967;51.634;5.566;2023-03-01T23:00:54;17.90;44.90
58153;DHT22;43967;51.634;5.566;2023-03-01T23:06:16;17.90;44.90
58153;DHT22;43967;51.634;5.566;2023-03-01T23:11:38;17.90;44.90
58153;DHT22;43967;51.634;5.566;2023-03-01T23:17:00;17.80;44.90
58153;DHT22;43967;51.634;5.566;2023-03-01T23:22:21;17.80;44.90
58153;DHT22;43967;51.634;5.566;2023-03-01T23:27:42;17.80;45.00
58153;DHT22;43967;51.634;5.566;2023-03-01T23:33:04;17.80;45.00
58153;DHT22;43967;51.634;5.566;2023-03-01T23:38:25;17.70;45.00
58153;DHT22;43967;51.634;5.566;2023-03-01T23:43:48;17.70;45.00
58153;DHT22;43967;51.634;5.566;2023-03-01T23:49:12;17.70;45.00
58153;DHT22;43967;51.634;5.566;2023-03-01T23:54:34;17.70;45.00
58153;DHT22;43967;51.634;5.566;2023-03-01T23:59:55;17.60;45.00
